Yazd Shahid Sadooghi Airport
OIYY : now visible

Airfield :











YOU CAN JOIN US ON...

 
LOGIN :

Register | Disclaimer

   EN    FR    IT 

 









Legend :    VFR   Marginal VFR   IFR   Intensive IFR   Very Intensive IFR
Visi :
Ceiling :
>= 8 km
>= 3000ft
5 to 8 km
1000 to 3000 ft
1500m to 5 km
500 to 1000 ft
800 to 1500m
200 to 500 ft
< 800m
< 200 ft
Symbols :   Thunderstorms  Fog  Heavy snow  Heavy precipitations  Wind > 20 kt







- Airport Elevation : 4054 ft
- IATA code : AZD


OIYY - Yazd Shahid Sadooghi

CURRENT METAR :
  • 270730Z 10004KT 9999 SCT100 37/02 Q1013

EXPIRED METARs :
  • 270720Z 10004KT 9999 SCT100 37/02 Q1013
  • 270700Z 34002KT 9999 SCT100 37/02 Q1013
  • 270630Z 23004KT 9999 SCT100 35/02 Q1014
  • 270620Z 23004KT 9999 SCT100 35/02 Q1014
  • 270600Z 31002KT 9999 SCT100 34/01 Q1014
  • 270530Z 32004KT 9999 SCT100 33/02 Q1014
  • 270520Z 32004KT 9999 SCT100 33/02 Q1014
  • 270500Z 34004KT 9999 SCT100 32/02 Q1014

Expired Forecast.
OIIX FIR / Asia



MET'MAP, your aeronautical weather chart ! - Copyright ORBIFLY December 2007 - Disclaimer

ORBIFLY MET'MAP TEAM :

Programming & Development : Alexandra Zaïnal
Concept & Development : Baudouin d'Aumeries
Co-Development & Prog : Marc-Olivier Méhu
Technical & hardware support : Manuel Goepfert

Contact : metmap@orbifly.com




SOURCES & CREDITS :

   NOAA       Earth
Advisory